Time;durP1;ratioP1;P1;durP2;ratioP2;P2;SDS_P1;SDS_P2;PMS_P1;PMS_P2;Temp;Humidity;BMP_temperature;BMP_pressure;BME280_temperature;BME280_humidity;BME280_pressure;Samples;Min_cycle;Max_cycle;Signal;HPM_P1;HPM_P2
2022/11/06 00:00:05;;;;;;;0.53;0.53;;;3.20;99.90;;;;;;5036838;28;20249;-68
2022/11/06 00:02:30;;;;;;;0.82;0.60;;;3.20;99.90;;;;;;5036715;28;20417;-67
2022/11/06 00:06:46;;;;;;;0.30;0.30;;;3.20;99.90;;;;;;5036677;28;20173;-70
2022/11/06 00:07:46;;;;;;;0.30;0.30;;;3.20;99.90;;;;;;5036450;28;20179;-69
2022/11/06 00:10:13;;;;;;;0.82;0.82;;;3.20;99.90;;;;;;5036601;28;20204;-69
2022/11/06 00:12:38;;;;;;;0.40;0.40;;;3.80;99.90;;;;;;5036738;28;20214;-69
2022/11/06 00:15:04;;;;;;;0.30;0.30;;;3.20;99.90;;;;;;5036463;28;20171;-68
2022/11/06 00:17:30;;;;;;;0.60;0.60;;;3.30;99.90;;;;;;5036521;28;20627;-67
2022/11/06 00:19:56;;;;;;;0.30;0.30;;;3.20;99.90;;;;;;5036325;28;20220;-67
2022/11/06 00:22:21;;;;;;;0.40;0.40;;;3.30;99.90;;;;;;5036571;28;20250;-66
2022/11/06 00:24:48;;;;;;;0.47;0.47;;;3.50;99.90;;;;;;5036337;28;20223;-67
2022/11/06 00:27:14;;;;;;;0.30;0.30;;;3.30;99.90;;;;;;5036175;28;20182;-70
2022/11/06 00:29:40;;;;;;;0.50;0.50;;;3.30;99.90;;;;;;5036383;28;20725;-68
2022/11/06 00:32:06;;;;;;;0.40;0.40;;;3.30;99.90;;;;;;5036262;28;20170;-72
2022/11/06 00:34:32;;;;;;;0.50;0.50;;;3.30;99.90;;;;;;5036064;28;20253;-69
2022/11/06 00:36:58;;;;;;;0.30;0.30;;;3.30;99.90;;;;;;5036286;28;20401;-68
2022/11/06 00:39:23;;;;;;;0.40;0.40;;;3.20;99.90;;;;;;5035948;28;20270;-69
2022/11/06 00:41:49;;;;;;;0.30;0.30;;;3.20;99.90;;;;;;5036732;28;20248;-68
2022/11/06 00:44:14;;;;;;;0.30;0.30;;;3.20;99.90;;;;;;5035854;28;20171;-69
2022/11/06 00:46:40;;;;;;;0.30;0.30;;;3.10;99.90;;;;;;5036038;28;20178;-67
2022/11/06 00:49:06;;;;;;;0.30;0.30;;;3.10;99.90;;;;;;5035995;28;20197;-68
2022/11/06 00:51:35;;;;;;;0.30;0.30;;;3.00;99.90;;;;;;5035859;28;20174;-68
2022/11/06 00:54:05;;;;;;;0.40;0.40;;;3.10;99.90;;;;;;5035628;28;20629;-67
2022/11/06 00:56:31;;;;;;;0.40;0.40;;;3.10;99.90;;;;;;5035968;28;20174;-68
2022/11/06 00:59:01;;;;;;;0.37;0.37;;;3.10;99.90;;;;;;5035693;28;20266;-67
2022/11/06 01:01:29;;;;;;;0.30;0.30;;;3.20;99.90;;;;;;5035591;28;21023;-68
2022/11/06 01:03:57;;;;;;;0.30;0.30;;;3.10;99.90;;;;;;5035473;28;20545;-68
2022/11/06 01:06:26;;;;;;;0.38;0.38;;;3.10;99.90;;;;;;5035843;28;20167;-68
2022/11/06 01:08:52;;;;;;;0.40;0.40;;;3.20;99.90;;;;;;5035355;28;20556;-66
2022/11/06 01:11:23;;;;;;;0.40;0.40;;;3.20;99.90;;;;;;5035547;28;20189;-66
2022/11/06 01:13:51;;;;;;;0.30;0.30;;;3.20;99.90;;;;;;5035526;28;20179;-68
2022/11/06 01:16:17;;;;;;;0.30;0.30;;;3.50;99.90;;;;;;5035537;28;20205;-67
2022/11/06 01:18:44;;;;;;;0.30;0.30;;;3.00;99.90;;;;;;5035270;28;20362;-68
2022/11/06 01:21:22;;;;;;;0.70;0.70;;;3.00;99.90;;;;;;5035432;28;20197;-67
2022/11/06 01:23:55;;;;;;;0.30;0.30;;;3.00;99.90;;;;;;5035213;28;20185;-68
2022/11/06 01:26:21;;;;;;;0.30;0.30;;;2.90;99.90;;;;;;5035310;28;20166;-66
2022/11/06 01:28:47;;;;;;;0.40;0.40;;;2.90;99.90;;;;;;5035226;28;20254;-66
2022/11/06 01:31:16;;;;;;;0.30;0.30;;;2.80;99.90;;;;;;5035105;28;20209;-69
2022/11/06 01:33:42;;;;;;;0.30;0.30;;;2.90;99.90;;;;;;5034900;28;20201;-68
2022/11/06 01:36:10;;;;;;;0.45;0.45;;;2.90;99.90;;;;;;5034996;28;20183;-68
2022/11/06 01:38:35;;;;;;;0.40;0.40;;;2.80;99.90;;;;;;5017113;28;20203;-67
2022/11/06 01:41:01;;;;;;;0.30;0.30;;;2.80;99.90;;;;;;5034898;28;20206;-69
2022/11/06 01:43:57;;;;;;;0.32;0.32;;;2.80;99.90;;;;;;5035028;28;20256;-68
2022/11/06 01:46:25;;;;;;;0.30;0.30;;;2.90;99.90;;;;;;5035033;28;20171;-67
2022/11/06 01:49:06;;;;;;;0.40;0.40;;;2.90;99.90;;;;;;5034588;28;20199;-67
2022/11/06 01:51:37;;;;;;;0.30;0.30;;;2.90;99.90;;;;;;5034798;28;20172;-68
2022/11/06 01:54:05;;;;;;;0.77;0.77;;;2.90;99.90;;;;;;5034645;28;20206;-69
2022/11/06 01:56:31;;;;;;;0.50;0.50;;;2.90;99.90;;;;;;5034794;28;20568;-69
2022/11/06 01:58:57;;;;;;;0.95;0.95;;;3.00;99.90;;;;;;5034698;28;20198;-67
2022/11/06 02:01:23;;;;;;;0.30;0.30;;;2.80;99.90;;;;;;5034614;28;20245;-67
2022/11/06 02:04:03;;;;;;;0.60;0.60;;;2.90;99.90;;;;;;5034383;28;20406;-68
2022/11/06 02:06:30;;;;;;;0.30;0.30;;;2.90;99.90;;;;;;5034457;28;20172;-69
2022/11/06 02:08:55;;;;;;;0.40;0.40;;;2.80;99.90;;;;;;5034327;28;20210;-69
2022/11/06 02:11:21;;;;;;;0.30;0.30;;;2.90;99.90;;;;;;5033681;28;20173;-69
2022/11/06 02:14:18;;;;;;;0.50;0.50;;;2.80;99.90;;;;;;5034318;28;20668;-69
2022/11/06 02:16:51;;;;;;;0.30;0.30;;;2.80;99.90;;;;;;5031986;28;20187;-67
2022/11/06 02:19:37;;;;;;;0.30;0.30;;;2.90;99.90;;;;;;5034184;28;20211;-69
2022/11/06 02:22:21;;;;;;;0.40;0.40;;;2.90;99.90;;;;;;5034236;28;20598;-69
2022/11/06 02:25:02;;;;;;;0.40;0.40;;;3.00;99.90;;;;;;5034131;28;20179;-67
2022/11/06 02:27:29;;;;;;;0.80;0.80;;;3.10;99.90;;;;;;5034210;28;20527;-69
2022/11/06 02:30:05;;;;;;;0.93;0.93;;;3.00;99.90;;;;;;5034102;28;20191;-69
2022/11/06 02:33:04;;;;;;;0.40;0.40;;;3.00;99.90;;;;;;5033961;28;20166;-67
2022/11/06 02:35:39;;;;;;;0.30;0.30;;;3.00;99.90;;;;;;5033942;28;20188;-70
2022/11/06 02:38:11;;;;;;;0.88;0.88;;;3.10;99.90;;;;;;5034030;28;20170;-68
2022/11/06 02:40:42;;;;;;;0.40;0.40;;;3.00;99.90;;;;;;5033814;28;20253;-67
2022/11/06 02:43:09;;;;;;;0.30;0.30;;;2.90;99.90;;;;;;5033870;28;20166;-69
2022/11/06 02:45:42;;;;;;;0.32;0.32;;;2.90;99.90;;;;;;5033895;28;20184;-68
2022/11/06 02:48:10;;;;;;;0.30;0.30;;;3.00;99.90;;;;;;5033925;28;20209;-68
2022/11/06 02:50:42;;;;;;;0.95;0.95;;;2.90;99.90;;;;;;5034019;28;20171;-68
2022/11/06 02:53:10;;;;;;;0.52;0.52;;;2.80;99.90;;;;;;5033966;28;20604;-66
2022/11/06 02:55:48;;;;;;;0.40;0.40;;;2.90;99.90;;;;;;5033594;28;20639;-66
2022/11/06 02:58:22;;;;;;;0.30;0.30;;;2.90;99.90;;;;;;5033591;28;20198;-67
2022/11/06 03:01:00;;;;;;;1.38;1.05;;;2.90;99.90;;;;;;5033603;28;20233;-68
2022/11/06 03:03:28;;;;;;;0.30;0.30;;;2.90;99.90;;;;;;5033500;28;20255;-70
2022/11/06 03:06:07;;;;;;;0.75;0.65;;;2.90;99.90;;;;;;5033384;28;20177;-67
2022/11/06 03:08:48;;;;;;;0.47;0.47;;;2.90;99.90;;;;;;5033450;28;20604;-70
2022/11/06 03:11:29;;;;;;;0.30;0.30;;;3.00;99.90;;;;;;5033490;28;20728;-66
2022/11/06 03:14:05;;;;;;;0.30;0.30;;;3.00;99.90;;;;;;5033375;28;20180;-67
2022/11/06 03:16:54;;;;;;;0.30;0.30;;;2.90;99.90;;;;;;5033367;28;20292;-67
2022/11/06 03:19:34;;;;;;;0.30;0.30;;;3.00;99.90;;;;;;5033422;28;20225;-70
2022/11/06 03:22:21;;;;;;;0.30;0.30;;;3.00;99.90;;;;;;5033296;28;20215;-68
2022/11/06 03:25:07;;;;;;;0.30;0.30;;;2.90;99.90;;;;;;5035579;28;20170;-69
2022/11/06 03:27:57;;;;;;;0.30;0.30;;;2.90;99.90;;;;;;5037829;28;20174;-69
2022/11/06 03:30:23;;;;;;;0.40;0.40;;;2.90;99.90;;;;;;5037381;28;20172;-69
2022/11/06 03:32:52;;;;;;;0.30;0.30;;;2.90;99.90;;;;;;5019406;28;20272;-67
2022/11/06 03:35:29;;;;;;;1.17;1.02;;;2.90;99.90;;;;;;5037325;28;20515;-68
2022/11/06 03:38:04;;;;;;;0.40;0.40;;;2.90;99.90;;;;;;5037348;28;20590;-70
2022/11/06 03:40:34;;;;;;;0.73;0.73;;;2.90;99.90;;;;;;5037244;28;20616;-68
2022/11/06 03:43:03;;;;;;;0.30;0.30;;;3.00;99.90;;;;;;5037128;28;20171;-69
2022/11/06 03:45:31;;;;;;;0.30;0.30;;;3.00;99.90;;;;;;5037125;28;20195;-68
2022/11/06 03:48:06;;;;;;;0.40;0.40;;;3.00;99.90;;;;;;5037135;28;20598;-68
2022/11/06 03:50:39;;;;;;;0.75;0.47;;;3.00;99.90;;;;;;5037066;28;20162;-68
2022/11/06 03:53:14;;;;;;;1.35;1.13;;;3.00;99.90;;;;;;5036952;28;20178;-69
2022/11/06 03:55:49;;;;;;;0.55;0.55;;;3.00;99.90;;;;;;5036951;28;20573;-69
2022/11/06 03:58:21;;;;;;;1.63;1.52;;;3.00;99.90;;;;;;5037022;28;20546;-69
2022/11/06 04:00:48;;;;;;;0.40;0.40;;;2.90;99.90;;;;;;5036909;28;20204;-67
2022/11/06 04:03:24;;;;;;;0.55;0.55;;;2.90;99.90;;;;;;5036709;28;20212;-68
2022/11/06 04:06:03;;;;;;;1.05;1.05;;;2.90;99.90;;;;;;5036923;28;20535;-68
2022/11/06 04:14:06;;;;;;;0.65;0.65;;;3.00;99.90;;;;;;5036767;28;20237;-67
2022/11/06 04:16:38;;;;;;;0.30;0.30;;;2.90;99.90;;;;;;5036528;28;20589;-69
2022/11/06 04:19:17;;;;;;;0.35;0.35;;;3.00;99.90;;;;;;5036489;28;20191;-69
2022/11/06 04:21:46;;;;;;;0.30;0.30;;;3.00;99.90;;;;;;5036652;28;20283;-68
2022/11/06 04:27:46;;;;;;;0.40;0.40;;;3.00;99.90;;;;;;5036474;28;20198;-68
2022/11/06 04:30:16;;;;;;;0.40;0.40;;;3.00;99.90;;;;;;5036284;28;20205;-68
2022/11/06 04:32:45;;;;;;;0.40;0.40;;;3.00;99.90;;;;;;5036472;28;20175;-68
2022/11/06 04:35:26;;;;;;;1.13;1.13;;;3.10;99.90;;;;;;5035512;28;20185;-67
2022/11/06 04:38:06;;;;;;;0.40;0.40;;;3.20;99.90;;;;;;5036199;28;20250;-69
2022/11/06 04:40:50;;;;;;;0.50;0.50;;;3.20;99.90;;;;;;5036167;28;20581;-67
2022/11/06 04:43:39;;;;;;;0.30;0.30;;;3.20;99.90;;;;;;5036018;28;20164;-69
2022/11/06 04:46:09;;;;;;;0.30;0.30;;;3.20;99.90;;;;;;5036468;28;20196;-68
2022/11/06 04:48:37;;;;;;;0.30;0.30;;;3.20;99.90;;;;;;5018782;28;20732;-66
2022/11/06 04:51:07;;;;;;;0.30;0.30;;;3.10;99.90;;;;;;5035921;28;20235;-68
2022/11/06 04:53:34;;;;;;;0.40;0.40;;;3.10;99.90;;;;;;5035854;28;20225;-67
2022/11/06 04:56:06;;;;;;;1.30;1.30;;;3.10;99.90;;;;;;5035967;28;20175;-69
2022/11/06 04:58:32;;;;;;;0.38;0.38;;;3.10;99.90;;;;;;5035991;28;20530;-67
2022/11/06 05:00:58;;;;;;;0.30;0.30;;;3.20;99.90;;;;;;5035823;28;20251;-67
2022/11/06 05:03:23;;;;;;;0.30;0.30;;;3.30;99.90;;;;;;5035544;28;20167;-69
2022/11/06 05:05:49;;;;;;;0.40;0.40;;;3.30;99.90;;;;;;5035812;28;20167;-70
2022/11/06 05:08:17;;;;;;;1.03;1.03;;;3.30;99.90;;;;;;5035542;28;20281;-69
2022/11/06 05:10:44;;;;;;;1.73;1.63;;;3.30;99.90;;;;;;5035556;28;20178;-70
2022/11/06 05:13:10;;;;;;;0.30;0.30;;;3.20;99.90;;;;;;5017561;28;20187;-68
2022/11/06 05:15:36;;;;;;;0.30;0.30;;;3.20;99.90;;;;;;5035551;28;20186;-67
2022/11/06 05:18:01;;;;;;;0.60;0.60;;;2.90;99.90;;;;;;5035514;28;20531;-70
2022/11/06 05:20:27;;;;;;;1.50;1.40;;;3.10;99.90;;;;;;5035334;28;20198;-70
2022/11/06 05:23:01;;;;;;;0.30;0.30;;;3.00;99.90;;;;;;5035320;28;20163;-69
2022/11/06 05:25:31;;;;;;;0.57;0.57;;;3.10;99.90;;;;;;5035319;28;20181;-67
2022/11/06 05:27:58;;;;;;;0.30;0.30;;;3.00;99.90;;;;;;5035221;28;20186;-70
2022/11/06 05:30:24;;;;;;;0.70;0.70;;;3.20;99.90;;;;;;5035162;28;20227;-67
2022/11/06 05:32:51;;;;;;;0.30;0.30;;;3.20;99.90;;;;;;5034891;28;20177;-69
2022/11/06 05:35:17;;;;;;;0.40;0.40;;;3.10;99.90;;;;;;5035261;28;20216;-68
2022/11/06 05:37:43;;;;;;;0.40;0.40;;;3.10;99.90;;;;;;5035000;28;20188;-67
2022/11/06 05:40:09;;;;;;;0.40;0.40;;;3.20;99.90;;;;;;5034898;28;20202;-68
2022/11/06 05:42:42;;;;;;;1.70;0.80;;;3.20;99.90;;;;;;5035141;28;20170;-68
2022/11/06 05:45:09;;;;;;;0.98;0.98;;;3.10;99.90;;;;;;5034800;28;20511;-69
2022/11/06 05:47:35;;;;;;;0.40;0.40;;;3.00;99.90;;;;;;5033914;28;20171;-70
2022/11/06 05:50:00;;;;;;;0.40;0.40;;;3.00;99.90;;;;;;5034892;28;20256;-72
2022/11/06 05:52:26;;;;;;;1.53;1.53;;;3.00;99.90;;;;;;5034792;28;20199;-67
2022/11/06 05:54:52;;;;;;;0.57;0.57;;;3.30;99.90;;;;;;5034672;28;20506;-67
2022/11/06 05:57:17;;;;;;;0.30;0.30;;;3.30;99.90;;;;;;5034912;28;20901;-70
2022/11/06 05:59:43;;;;;;;0.83;0.83;;;3.10;99.90;;;;;;5034505;28;20666;-68
2022/11/06 06:02:09;;;;;;;0.30;0.30;;;3.10;99.90;;;;;;5034835;28;20210;-69
2022/11/06 06:04:35;;;;;;;0.30;0.30;;;3.10;99.90;;;;;;5034369;28;20195;-68
2022/11/06 06:07:00;;;;;;;1.67;1.60;;;2.90;99.90;;;;;;5034525;28;20174;-68
2022/11/06 06:09:26;;;;;;;0.60;0.60;;;2.90;99.90;;;;;;5034362;28;20198;-69
2022/11/06 06:11:52;;;;;;;0.50;0.50;;;3.10;99.90;;;;;;5034447;28;20253;-70
2022/11/06 06:14:19;;;;;;;1.77;1.67;;;3.00;99.90;;;;;;5034251;28;20706;-67
2022/11/06 06:16:45;;;;;;;0.60;0.60;;;3.10;99.90;;;;;;5016730;28;20230;-69
2022/11/06 06:19:11;;;;;;;0.97;0.97;;;3.10;99.90;;;;;;5034144;28;20218;-69
2022/11/06 06:21:37;;;;;;;0.73;0.73;;;3.00;99.90;;;;;;5034379;28;20459;-67
2022/11/06 06:24:04;;;;;;;1.13;1.13;;;3.00;99.90;;;;;;5034263;28;20254;-69
2022/11/06 06:26:30;;;;;;;0.30;0.30;;;3.10;99.90;;;;;;5034205;28;20265;-68
2022/11/06 06:28:55;;;;;;;0.30;0.30;;;3.20;99.90;;;;;;5034236;28;20681;-69
2022/11/06 06:31:21;;;;;;;1.37;1.30;;;3.20;99.90;;;;;;5034217;28;20175;-69
2022/11/06 06:33:47;;;;;;;0.37;0.37;;;3.20;99.90;;;;;;5033913;28;20177;-68
2022/11/06 06:36:13;;;;;;;0.40;0.40;;;3.30;99.90;;;;;;5034028;28;20435;-68
2022/11/06 06:38:38;;;;;;;0.30;0.30;;;3.10;99.90;;;;;;5034113;28;20237;-68
2022/11/06 06:41:06;;;;;;;0.70;0.70;;;3.10;99.90;;;;;;5033988;28;20448;-67
2022/11/06 06:43:32;;;;;;;0.30;0.30;;;3.30;99.90;;;;;;5033765;28;20534;-69
2022/11/06 06:46:00;;;;;;;9.77;1.20;;;3.30;99.90;;;;;;5034005;28;20186;-66
2022/11/06 06:48:26;;;;;;;0.82;0.82;;;3.30;99.90;;;;;;5033903;28;20210;-69
2022/11/06 06:50:55;;;;;;;1.10;1.10;;;3.30;99.90;;;;;;5033990;28;20175;-69
2022/11/06 06:53:20;;;;;;;0.63;0.63;;;3.30;99.90;;;;;;5033565;28;20258;-68
2022/11/06 06:55:46;;;;;;;0.40;0.40;;;3.40;99.90;;;;;;5034016;28;20227;-68
2022/11/06 06:58:11;;;;;;;0.40;0.40;;;3.40;99.90;;;;;;5033551;28;20206;-67
2022/11/06 07:00:37;;;;;;;0.83;0.80;;;3.50;99.90;;;;;;5033620;28;20190;-66
2022/11/06 07:03:03;;;;;;;0.30;0.30;;;3.50;99.90;;;;;;5033384;28;20598;-69
2022/11/06 07:05:28;;;;;;;0.30;0.30;;;3.50;99.90;;;;;;5033613;28;20535;-70
2022/11/06 07:07:54;;;;;;;0.50;0.50;;;3.60;99.90;;;;;;5033368;28;20655;-69
2022/11/06 07:10:20;;;;;;;0.40;0.40;;;3.60;99.90;;;;;;5033712;28;20619;-66
2022/11/06 07:12:45;;;;;;;1.23;1.23;;;3.60;99.90;;;;;;5033643;28;20174;-69
2022/11/06 07:15:11;;;;;;;0.40;0.40;;;3.70;99.90;;;;;;5032747;28;20205;-69
2022/11/06 07:17:36;;;;;;;1.47;1.33;;;3.90;99.90;;;;;;5033569;28;20175;-68
2022/11/06 07:20:03;;;;;;;0.30;0.30;;;3.90;99.90;;;;;;5033318;28;20190;-69
2022/11/06 07:22:29;;;;;;;0.30;0.30;;;4.00;99.90;;;;;;5033443;28;20178;-69
2022/11/06 07:24:54;;;;;;;3.70;1.53;;;4.30;99.90;;;;;;5033278;28;20174;-69
2022/11/06 07:27:20;;;;;;;4.00;0.97;;;4.60;99.90;;;;;;5033574;28;20628;-67
2022/11/06 07:29:45;;;;;;;0.87;0.60;;;4.90;99.90;;;;;;5033190;28;20195;-68
2022/11/06 07:32:11;;;;;;;0.73;0.73;;;5.20;99.90;;;;;;5033146;28;20170;-67
2022/11/06 07:34:37;;;;;;;0.87;0.87;;;5.40;99.90;;;;;;5033331;28;20522;-69
2022/11/06 07:37:07;;;;;;;0.77;0.77;;;5.60;99.90;;;;;;5033510;28;20194;-66
2022/11/06 07:39:32;;;;;;;2.25;1.75;;;5.80;99.80;;;;;;5033600;28;20535;-70
2022/11/06 07:41:58;;;;;;;1.17;1.17;;;6.00;99.90;;;;;;5033581;28;20167;-66
2022/11/06 07:44:24;;;;;;;1.37;1.27;;;6.10;99.90;;;;;;5033162;28;20495;-68
2022/11/06 07:46:49;;;;;;;1.17;1.17;;;6.30;99.90;;;;;;5033395;28;20172;-71
2022/11/06 07:49:15;;;;;;;1.33;1.23;;;6.40;99.50;;;;;;5033412;28;20188;-69
2022/11/06 07:51:42;;;;;;;1.80;0.60;;;6.40;99.00;;;;;;5033362;28;20205;-70
2022/11/06 07:54:07;;;;;;;1.55;1.55;;;6.40;99.10;;;;;;5032919;28;20173;-69
2022/11/06 07:56:33;;;;;;;0.90;0.90;;;6.40;98.90;;;;;;5033643;28;20633;-71
2022/11/06 07:58:59;;;;;;;6.60;2.55;;;6.40;98.80;;;;;;5033641;28;20205;-70
2022/11/06 08:01:25;;;;;;;0.73;0.73;;;6.40;98.80;;;;;;5033485;28;20211;-69
2022/11/06 08:03:50;;;;;;;2.40;2.10;;;6.50;98.40;;;;;;5033192;28;20308;-70
2022/11/06 08:06:16;;;;;;;2.93;2.83;;;6.50;98.40;;;;;;5032922;28;20225;-70
2022/11/06 08:08:41;;;;;;;0.50;0.50;;;6.80;99.50;;;;;;5032983;28;20213;-69
2022/11/06 08:11:09;;;;;;;2.13;1.83;;;7.30;99.10;;;;;;5035778;28;20249;-70
2022/11/06 08:13:36;;;;;;;1.92;1.70;;;8.10;99.90;;;;;;5036912;28;20171;-68
2022/11/06 08:16:11;;;;;;;4.20;1.98;;;9.00;99.90;;;;;;5036915;28;20202;-69
2022/11/06 08:18:37;;;;;;;0.30;0.30;;;10.20;99.40;;;;;;5036499;28;20204;-68
2022/11/06 08:21:03;;;;;;;2.13;1.93;;;11.10;95.40;;;;;;5036873;28;20276;-69
2022/11/06 08:23:28;;;;;;;3.00;1.93;;;12.10;95.40;;;;;;5036341;28;20416;-70
2022/11/06 08:25:56;;;;;;;1.10;1.10;;;12.70;93.50;;;;;;5036836;28;20498;-71
2022/11/06 08:28:23;;;;;;;1.87;1.40;;;13.20;90.00;;;;;;5036769;28;20249;-69
2022/11/06 08:30:48;;;;;;;1.23;1.13;;;13.10;88.40;;;;;;5036434;28;20493;-70
2022/11/06 08:33:14;;;;;;;1.07;0.97;;;13.30;88.50;;;;;;5036243;28;20861;-69
2022/11/06 08:35:40;;;;;;;1.43;1.13;;;13.30;87.20;;;;;;5036746;28;20176;-70
2022/11/06 08:38:05;;;;;;;1.43;1.10;;;13.60;94.00;;;;;;5036691;28;20178;-70
2022/11/06 08:40:31;;;;;;;1.07;1.07;;;13.50;86.40;;;;;;5036744;28;20198;-70
2022/11/06 08:43:06;;;;;;;2.07;0.97;;;13.40;85.30;;;;;;5036102;28;20242;-70
2022/11/06 08:45:34;;;;;;;1.40;1.27;;;13.20;85.50;;;;;;5036275;28;20458;-68
2022/11/06 08:48:01;;;;;;;1.40;0.93;;;12.70;91.50;;;;;;5036022;28;20401;-68
2022/11/06 08:50:27;;;;;;;2.43;1.00;;;12.70;85.30;;;;;;5036568;28;20737;-68
2022/11/06 08:52:56;;;;;;;0.70;0.70;;;12.60;86.20;;;;;;5035830;28;20401;-70
2022/11/06 08:55:22;;;;;;;1.53;1.13;;;12.60;86.90;;;;;;5036496;28;20406;-68
2022/11/06 08:57:48;;;;;;;0.70;0.70;;;12.80;87.10;;;;;;5035944;28;20736;-67
2022/11/06 09:00:14;;;;;;;2.57;1.40;;;13.10;86.30;;;;;;5035924;28;20449;-68
2022/11/06 09:02:40;;;;;;;2.63;1.83;;;13.30;86.20;;;;;;5036398;28;20167;-69
2022/11/06 09:05:06;;;;;;;1.17;1.17;;;13.40;86.00;;;;;;5036001;28;20775;-69
2022/11/06 09:07:32;;;;;;;4.10;1.53;;;13.60;85.10;;;;;;5036249;28;20405;-70
2022/11/06 09:09:58;;;;;;;5.80;1.53;;;13.60;83.10;;;;;;5035470;28;20537;-71
2022/11/06 09:12:23;;;;;;;2.00;1.70;;;13.50;83.70;;;;;;5035680;28;20170;-69
2022/11/06 09:14:49;;;;;;;1.20;1.13;;;13.50;85.10;;;;;;5035433;28;20646;-70
2022/11/06 09:17:15;;;;;;;0.93;0.87;;;13.50;86.10;;;;;;5035816;28;20194;-69
2022/11/06 09:19:41;;;;;;;0.67;0.67;;;13.60;86.90;;;;;;5035798;28;20193;-71
2022/11/06 09:22:07;;;;;;;0.83;0.83;;;13.60;87.40;;;;;;5035951;28;20402;-69
2022/11/06 09:24:32;;;;;;;2.10;1.23;;;13.60;86.30;;;;;;5035250;28;20175;-69
2022/11/06 09:26:58;;;;;;;1.47;1.37;;;13.80;85.50;;;;;;5035427;28;20398;-70
2022/11/06 09:29:24;;;;;;;0.80;0.80;;;13.90;85.50;;;;;;5035484;28;20244;-69
2022/11/06 09:31:49;;;;;;;1.97;1.87;;;13.80;84.60;;;;;;5035531;28;20205;-69
2022/11/06 09:34:15;;;;;;;0.50;0.50;;;13.80;85.90;;;;;;5035008;28;20652;-71
2022/11/06 09:36:40;;;;;;;0.80;0.80;;;14.10;85.70;;;;;;5035093;28;20259;-71
2022/11/06 09:39:06;;;;;;;0.77;0.70;;;14.30;84.00;;;;;;5035317;28;20277;-71
2022/11/06 09:42:19;;;;;;;0.50;0.50;;;14.80;83.50;;;;;;5035077;28;20206;-72
2022/11/06 09:44:45;;;;;;;0.40;0.40;;;15.60;83.80;;;;;;4964511;28;20316;-71
2022/11/06 09:47:18;;;;;;;0.40;0.40;;;15.80;81.40;;;;;;5035621;28;20844;-70
2022/11/06 09:49:55;;;;;;;0.93;0.73;;;16.20;77.50;;;;;;5035077;28;20612;-71
2022/11/06 09:52:29;;;;;;;0.40;0.40;;;16.40;77.00;;;;;;5034932;28;20405;-73
2022/11/06 09:55:08;;;;;;;0.30;0.30;;;16.80;77.00;;;;;;5034996;28;20424;-70
2022/11/06 09:57:45;;;;;;;0.93;0.93;;;17.40;74.80;;;;;;5035339;28;20410;-72
2022/11/06 10:00:13;;;;;;;1.60;1.13;;;18.30;74.50;;;;;;5034650;28;20505;-72
2022/11/06 10:03:04;;;;;;;0.50;0.50;;;19.00;69.20;;;;;;5034767;28;20414;-70
2022/11/06 10:05:37;;;;;;;0.40;0.40;;;19.10;67.70;;;;;;5034402;28;20416;-70
2022/11/06 10:08:06;;;;;;;0.40;0.40;;;18.80;63.70;;;;;;5034390;28;20845;-70
2022/11/06 10:10:51;;;;;;;0.60;0.50;;;18.40;61.20;;;;;;5035294;28;20406;-70
2022/11/06 10:13:41;;;;;;;0.70;0.70;;;18.60;65.20;;;;;;5034595;28;20884;-70
2022/11/06 10:16:29;;;;;;;3.93;0.60;;;18.30;62.40;;;;;;5034960;28;20434;-71
2022/11/06 10:19:03;;;;;;;0.50;0.40;;;18.10;61.80;;;;;;4995879;28;20532;-71
2022/11/06 10:21:47;;;;;;;0.50;0.50;;;18.60;64.60;;;;;;5034584;28;20456;-69
2022/11/06 10:24:32;;;;;;;0.50;0.50;;;19.00;62.90;;;;;;5034098;28;20463;-69
2022/11/06 10:26:58;;;;;;;0.40;0.40;;;18.60;59.20;;;;;;5034692;28;20743;-68
2022/11/06 10:29:32;;;;;;;0.77;0.50;;;17.50;59.50;;;;;;5034012;28;20530;-70
2022/11/06 10:32:29;;;;;;;0.30;0.30;;;16.60;63.10;;;;;;5034371;28;20242;-69
2022/11/06 10:35:22;;;;;;;0.40;0.40;;;16.40;65.20;;;;;;5003210;28;21001;-69
2022/11/06 10:38:20;;;;;;;0.40;0.40;;;16.10;64.70;;;;;;5034090;28;20405;-69
2022/11/06 10:40:48;;;;;;;1.43;0.80;;;15.80;67.80;;;;;;5033467;28;20540;-70
2022/11/06 10:43:31;;;;;;;0.50;0.50;;;15.40;67.00;;;;;;5034231;28;20455;-69
2022/11/06 10:46:17;;;;;;;0.40;0.40;;;15.10;72.30;;;;;;5034487;28;20409;-68
2022/11/06 10:48:48;;;;;;;0.30;0.30;;;14.70;74.80;;;;;;5033959;28;20429;-70
2022/11/06 10:51:51;;;;;;;0.30;0.30;;;14.40;75.40;;;;;;5034562;28;20393;-69
2022/11/06 10:54:32;;;;;;;0.93;0.93;;;14.20;74.60;;;;;;5033847;28;20439;-70
2022/11/06 10:57:17;;;;;;;0.40;0.40;;;13.80;72.50;;;;;;5033971;28;20786;-68
2022/11/06 10:59:42;;;;;;;0.40;0.40;;;13.60;76.00;;;;;;5033509;28;20438;-68
2022/11/06 11:02:32;;;;;;;1.70;0.40;;;13.50;81.40;;;;;;5033638;28;20815;-70
2022/11/06 11:04:58;;;;;;;0.37;0.37;;;13.40;79.20;;;;;;5033468;28;20180;-68
2022/11/06 11:07:28;;;;;;;0.40;0.40;;;13.60;77.90;;;;;;5034130;28;20398;-71
2022/11/06 11:09:53;;;;;;;0.30;0.30;;;13.50;85.90;;;;;;5015518;28;20679;-67
2022/11/06 11:12:31;;;;;;;0.60;0.40;;;13.20;81.30;;;;;;5033599;28;20409;-69
2022/11/06 11:15:13;;;;;;;0.40;0.40;;;13.10;80.70;;;;;;5033278;28;20626;-70
2022/11/06 11:17:41;;;;;;;0.40;0.40;;;12.80;86.60;;;;;;5033673;28;20925;-70
2022/11/06 11:20:30;;;;;;;0.50;0.50;;;12.50;85.30;;;;;;5033243;28;20832;-70
2022/11/06 11:23:19;;;;;;;0.40;0.40;;;12.50;87.50;;;;;;5033429;28;20547;-69
2022/11/06 11:25:56;;;;;;;0.50;0.50;;;12.40;87.60;;;;;;5033375;28;20741;-71
2022/11/06 11:28:34;;;;;;;0.40;0.40;;;12.00;76.90;;;;;;5033368;28;20464;-68
2022/11/06 11:31:14;;;;;;;0.87;0.60;;;12.10;85.20;;;;;;5032710;28;20432;-68
2022/11/06 11:33:51;;;;;;;2.90;2.80;;;12.40;79.80;;;;;;5033131;28;20515;-69
2022/11/06 11:36:17;;;;;;;0.40;0.40;;;12.70;77.60;;;;;;5033179;28;20413;-70
2022/11/06 11:38:43;;;;;;;0.60;0.60;;;12.50;77.60;;;;;;5032950;28;20444;-70
2022/11/06 11:41:18;;;;;;;0.50;0.50;;;12.40;74.00;;;;;;5033124;28;20491;-70
2022/11/06 11:43:56;;;;;;;1.30;0.90;;;12.30;74.30;;;;;;5033052;28;20803;-70
2022/11/06 11:46:21;;;;;;;0.40;0.40;;;12.20;69.80;;;;;;5036652;28;20485;-68
2022/11/06 11:48:56;;;;;;;0.30;0.30;;;12.10;76.80;;;;;;5037082;28;20928;-70
2022/11/06 11:51:33;;;;;;;0.40;0.40;;;12.20;75.70;;;;;;5037152;28;20177;-68
2022/11/06 11:54:08;;;;;;;0.30;0.30;;;12.30;74.70;;;;;;5037020;28;20407;-68
2022/11/06 11:56:44;;;;;;;1.13;0.50;;;12.20;71.30;;;;;;5037224;28;20892;-68
2022/11/06 11:59:19;;;;;;;2.10;0.97;;;12.10;71.50;;;;;;5037320;28;20480;-71
2022/11/06 12:01:46;;;;;;;0.60;0.40;;;12.00;72.60;;;;;;5037141;28;20447;-70
2022/11/06 12:04:33;;;;;;;0.87;0.67;;;12.20;68.90;;;;;;5036904;28;20405;-71
2022/11/06 12:07:13;;;;;;;0.30;0.30;;;12.20;66.50;;;;;;5037065;28;20434;-69
2022/11/06 12:09:43;;;;;;;0.30;0.30;;;11.80;65.00;;;;;;5036644;28;20994;-71
2022/11/06 12:12:25;;;;;;;0.50;0.50;;;11.40;65.40;;;;;;5036837;28;20179;-68
2022/11/06 12:15:09;;;;;;;0.50;0.50;;;11.20;68.60;;;;;;5018977;28;20421;-69
2022/11/06 12:17:38;;;;;;;0.30;0.30;;;11.00;68.50;;;;;;5036776;28;20484;-69
2022/11/06 12:20:14;;;;;;;0.30;0.30;;;10.90;74.00;;;;;;5036435;28;20202;-71
2022/11/06 12:22:44;;;;;;;0.30;0.30;;;10.90;67.40;;;;;;5036892;28;20434;-68
2022/11/06 12:25:25;;;;;;;0.70;0.70;;;11.10;72.20;;;;;;5018654;28;20175;-69
2022/11/06 12:27:54;;;;;;;0.30;0.30;;;11.30;71.40;;;;;;5036379;28;20428;-71
2022/11/06 12:30:20;;;;;;;0.30;0.30;;;11.30;67.30;;;;;;5036300;28;20459;-68
2022/11/06 12:33:02;;;;;;;0.30;0.30;;;11.30;65.70;;;;;;5036542;28;20845;-69
2022/11/06 12:35:36;;;;;;;0.37;0.37;;;11.50;67.40;;;;;;5036440;28;20401;-69
2022/11/06 12:38:33;;;;;;;0.70;0.70;;;11.40;80.70;;;;;;5036337;28;20439;-67
2022/11/06 12:41:10;;;;;;;0.87;0.67;;;11.60;70.60;;;;;;5036391;28;20785;-71
2022/11/06 12:43:47;;;;;;;0.30;0.30;;;11.60;68.60;;;;;;5036154;28;20412;-71
2022/11/06 12:46:31;;;;;;;0.40;0.40;;;11.60;68.60;;;;;;5036259;28;20432;-71
2022/11/06 12:49:08;;;;;;;0.30;0.30;;;11.70;69.90;;;;;;5036440;28;20794;-71
2022/11/06 12:51:37;;;;;;;0.30;0.30;;;11.60;69.00;;;;;;5036060;28;20390;-70
2022/11/06 12:54:37;;;;;;;0.40;0.40;;;11.60;70.00;;;;;;5035860;28;20463;-72
2022/11/06 12:57:08;;;;;;;0.80;0.80;;;11.50;70.90;;;;;;5035680;28;20390;-70
2022/11/06 12:59:34;;;;;;;0.60;0.60;;;11.50;70.10;;;;;;5035794;28;20422;-70
2022/11/06 13:02:11;;;;;;;0.40;0.40;;;11.40;70.50;;;;;;5035798;28;20202;-70
2022/11/06 13:04:55;;;;;;;0.40;0.40;;;11.40;71.70;;;;;;5035730;28;20178;-70
2022/11/06 13:07:32;;;;;;;0.50;0.50;;;11.30;71.90;;;;;;5035851;28;20182;-70
2022/11/06 13:10:20;;;;;;;0.80;0.80;;;11.20;72.70;;;;;;5035468;28;20225;-71
2022/11/06 13:13:06;;;;;;;0.30;0.30;;;11.20;72.80;;;;;;5017919;28;20961;-71
2022/11/06 13:15:46;;;;;;;0.47;0.47;;;11.20;73.50;;;;;;5035882;28;20557;-71
2022/11/06 13:18:22;;;;;;;0.45;0.45;;;11.10;90.60;;;;;;5035709;28;20624;-70
2022/11/06 13:20:56;;;;;;;0.30;0.30;;;11.20;76.20;;;;;;5035582;28;20658;-69
2022/11/06 13:23:38;;;;;;;0.43;0.43;;;11.10;76.20;;;;;;5035273;28;20201;-69